sensor_id;sensor_type;location;lat;lon;timestamp;pressure;altitude;pressure_sealevel;temperature
19666;BMP180;9980;51.020;7.772;2022-12-04T00:00:18;97435.00;;;5.80
19666;BMP180;9980;51.020;7.772;2022-12-04T00:02:45;97445.00;;;5.80
19666;BMP180;9980;51.020;7.772;2022-12-04T00:05:11;97445.00;;;5.80
19666;BMP180;9980;51.020;7.772;2022-12-04T00:07:38;97436.00;;;5.80
19666;BMP180;9980;51.020;7.772;2022-12-04T00:10:05;97427.00;;;5.80
19666;BMP180;9980;51.020;7.772;2022-12-04T00:12:33;97423.00;;;5.70
19666;BMP180;9980;51.020;7.772;2022-12-04T00:14:59;97425.00;;;5.70
19666;BMP180;9980;51.020;7.772;2022-12-04T00:17:47;97438.00;;;5.70
19666;BMP180;9980;51.020;7.772;2022-12-04T00:20:14;97442.00;;;5.70
19666;BMP180;9980;51.020;7.772;2022-12-04T00:22:40;97419.00;;;5.70
19666;BMP180;9980;51.020;7.772;2022-12-04T00:25:07;97432.00;;;5.70
19666;BMP180;9980;51.020;7.772;2022-12-04T00:27:33;97410.00;;;5.70
19666;BMP180;9980;51.020;7.772;2022-12-04T00:29:59;97416.00;;;5.70
19666;BMP180;9980;51.020;7.772;2022-12-04T00:32:25;97411.00;;;5.70
19666;BMP180;9980;51.020;7.772;2022-12-04T00:34:52;97407.00;;;5.70
19666;BMP180;9980;51.020;7.772;2022-12-04T00:37:18;97431.00;;;5.70
19666;BMP180;9980;51.020;7.772;2022-12-04T00:39:44;97421.00;;;5.70
19666;BMP180;9980;51.020;7.772;2022-12-04T00:42:10;97418.00;;;5.70
19666;BMP180;9980;51.020;7.772;2022-12-04T00:44:37;97411.00;;;5.70
19666;BMP180;9980;51.020;7.772;2022-12-04T00:47:03;97413.00;;;5.70
19666;BMP180;9980;51.020;7.772;2022-12-04T00:49:29;97410.00;;;5.60
19666;BMP180;9980;51.020;7.772;2022-12-04T00:51:55;97410.00;;;5.60
19666;BMP180;9980;51.020;7.772;2022-12-04T00:54:24;97408.00;;;5.60
19666;BMP180;9980;51.020;7.772;2022-12-04T00:56:50;97401.00;;;5.60
19666;BMP180;9980;51.020;7.772;2022-12-04T00:59:17;97420.00;;;5.60
19666;BMP180;9980;51.020;7.772;2022-12-04T01:01:43;97423.00;;;5.60
19666;BMP180;9980;51.020;7.772;2022-12-04T01:04:09;97410.00;;;5.60
19666;BMP180;9980;51.020;7.772;2022-12-04T01:06:35;97408.00;;;5.60
19666;BMP180;9980;51.020;7.772;2022-12-04T01:09:04;97408.00;;;5.60
19666;BMP180;9980;51.020;7.772;2022-12-04T01:11:31;97406.00;;;5.60
19666;BMP180;9980;51.020;7.772;2022-12-04T01:13:59;97400.00;;;5.60
19666;BMP180;9980;51.020;7.772;2022-12-04T01:16:38;97409.00;;;5.60
19666;BMP180;9980;51.020;7.772;2022-12-04T01:19:08;97402.00;;;5.60
19666;BMP180;9980;51.020;7.772;2022-12-04T01:21:36;97402.00;;;5.60
19666;BMP180;9980;51.020;7.772;2022-12-04T01:24:04;97403.00;;;5.60
19666;BMP180;9980;51.020;7.772;2022-12-04T01:26:31;97412.00;;;5.60
19666;BMP180;9980;51.020;7.772;2022-12-04T01:28:57;97399.00;;;5.60
19666;BMP180;9980;51.020;7.772;2022-12-04T01:31:24;97390.00;;;5.60
19666;BMP180;9980;51.020;7.772;2022-12-04T01:33:51;97411.00;;;5.60
19666;BMP180;9980;51.020;7.772;2022-12-04T01:36:21;97405.00;;;5.60
19666;BMP180;9980;51.020;7.772;2022-12-04T01:38:48;97402.00;;;5.50
19666;BMP180;9980;51.020;7.772;2022-12-04T01:41:20;97400.00;;;5.50
19666;BMP180;9980;51.020;7.772;2022-12-04T01:44:19;97399.00;;;5.50
19666;BMP180;9980;51.020;7.772;2022-12-04T01:46:51;97398.00;;;5.50
19666;BMP180;9980;51.020;7.772;2022-12-04T01:49:40;97395.00;;;5.40
19666;BMP180;9980;51.020;7.772;2022-12-04T01:52:17;97401.00;;;5.40
19666;BMP180;9980;51.020;7.772;2022-12-04T01:54:50;97394.00;;;5.40
19666;BMP180;9980;51.020;7.772;2022-12-04T01:57:21;97406.00;;;5.40
19666;BMP180;9980;51.020;7.772;2022-12-04T01:59:55;97386.00;;;5.40
19666;BMP180;9980;51.020;7.772;2022-12-04T02:02:32;97396.00;;;5.40
19666;BMP180;9980;51.020;7.772;2022-12-04T02:05:01;97386.00;;;5.40
19666;BMP180;9980;51.020;7.772;2022-12-04T02:07:28;97374.00;;;5.40
19666;BMP180;9980;51.020;7.772;2022-12-04T02:09:54;97376.00;;;5.30
19666;BMP180;9980;51.020;7.772;2022-12-04T02:12:55;97388.00;;;5.30
19666;BMP180;9980;51.020;7.772;2022-12-04T02:18:31;97375.00;;;5.30
19666;BMP180;9980;51.020;7.772;2022-12-04T02:21:33;97389.00;;;5.20
19666;BMP180;9980;51.020;7.772;2022-12-04T02:24:45;97386.00;;;5.20
19666;BMP180;9980;51.020;7.772;2022-12-04T02:27:55;97367.00;;;5.20
19666;BMP180;9980;51.020;7.772;2022-12-04T02:30:28;97372.00;;;5.20
19666;BMP180;9980;51.020;7.772;2022-12-04T02:33:18;97375.00;;;5.20
19666;BMP180;9980;51.020;7.772;2022-12-04T02:36:05;97367.00;;;5.20
19666;BMP180;9980;51.020;7.772;2022-12-04T02:44:56;97388.00;;;5.10
19666;BMP180;9980;51.020;7.772;2022-12-04T02:47:24;97390.00;;;5.20
19666;BMP180;9980;51.020;7.772;2022-12-04T02:50:04;97380.00;;;5.10
19666;BMP180;9980;51.020;7.772;2022-12-04T02:52:39;97387.00;;;5.10
19666;BMP180;9980;51.020;7.772;2022-12-04T02:55:19;97396.00;;;5.10
19666;BMP180;9980;51.020;7.772;2022-12-04T02:57:51;97395.00;;;5.10
19666;BMP180;9980;51.020;7.772;2022-12-04T03:00:20;97389.00;;;5.20
19666;BMP180;9980;51.020;7.772;2022-12-04T03:03:02;97396.00;;;5.10
19666;BMP180;9980;51.020;7.772;2022-12-04T03:05:53;97392.00;;;5.10
19666;BMP180;9980;51.020;7.772;2022-12-04T03:08:49;97407.00;;;5.10
19666;BMP180;9980;51.020;7.772;2022-12-04T03:11:16;97385.00;;;5.10
19666;BMP180;9980;51.020;7.772;2022-12-04T03:13:58;97385.00;;;5.10
19666;BMP180;9980;51.020;7.772;2022-12-04T03:16:39;97417.00;;;5.10
19666;BMP180;9980;51.020;7.772;2022-12-04T03:19:20;97387.00;;;5.10
19666;BMP180;9980;51.020;7.772;2022-12-04T03:21:57;97381.00;;;5.00
19666;BMP180;9980;51.020;7.772;2022-12-04T03:24:38;97402.00;;;5.00
19666;BMP180;9980;51.020;7.772;2022-12-04T03:27:33;97406.00;;;5.00
19666;BMP180;9980;51.020;7.772;2022-12-04T03:30:11;97405.00;;;5.00
19666;BMP180;9980;51.020;7.772;2022-12-04T03:33:15;97391.00;;;5.00
19666;BMP180;9980;51.020;7.772;2022-12-04T03:36:15;97398.00;;;5.00
19666;BMP180;9980;51.020;7.772;2022-12-04T03:38:59;97402.00;;;5.00
19666;BMP180;9980;51.020;7.772;2022-12-04T03:41:54;97399.00;;;4.90
19666;BMP180;9980;51.020;7.772;2022-12-04T03:44:43;97404.00;;;4.90
19666;BMP180;9980;51.020;7.772;2022-12-04T03:47:28;97407.00;;;4.90
19666;BMP180;9980;51.020;7.772;2022-12-04T03:50:44;97399.00;;;4.90
19666;BMP180;9980;51.020;7.772;2022-12-04T03:53:19;97405.00;;;4.90
19666;BMP180;9980;51.020;7.772;2022-12-04T03:55:58;97413.00;;;4.90
19666;BMP180;9980;51.020;7.772;2022-12-04T03:58:31;97405.00;;;4.90
19666;BMP180;9980;51.020;7.772;2022-12-04T04:01:00;97409.00;;;4.90
19666;BMP180;9980;51.020;7.772;2022-12-04T04:03:34;97405.00;;;4.90
19666;BMP180;9980;51.020;7.772;2022-12-04T04:06:09;97415.00;;;4.90
19666;BMP180;9980;51.020;7.772;2022-12-04T04:08:40;97422.00;;;4.80
19666;BMP180;9980;51.020;7.772;2022-12-04T04:11:17;97398.00;;;4.80
19666;BMP180;9980;51.020;7.772;2022-12-04T04:13:52;97406.00;;;4.80
19666;BMP180;9980;51.020;7.772;2022-12-04T04:16:43;97417.00;;;4.80
19666;BMP180;9980;51.020;7.772;2022-12-04T04:19:34;97396.00;;;4.80
19666;BMP180;9980;51.020;7.772;2022-12-04T04:22:24;97401.00;;;4.80
19666;BMP180;9980;51.020;7.772;2022-12-04T04:25:16;97406.00;;;4.80
19666;BMP180;9980;51.020;7.772;2022-12-04T04:27:56;97404.00;;;4.80
19666;BMP180;9980;51.020;7.772;2022-12-04T04:30:23;97389.00;;;4.80
19666;BMP180;9980;51.020;7.772;2022-12-04T04:33:06;97381.00;;;4.80
19666;BMP180;9980;51.020;7.772;2022-12-04T04:35:56;97381.00;;;4.70
19666;BMP180;9980;51.020;7.772;2022-12-04T04:38:30;97380.00;;;4.70
19666;BMP180;9980;51.020;7.772;2022-12-04T04:41:15;97367.00;;;4.70
19666;BMP180;9980;51.020;7.772;2022-12-04T04:44:09;97367.00;;;4.70
19666;BMP180;9980;51.020;7.772;2022-12-04T04:46:45;97372.00;;;4.70
19666;BMP180;9980;51.020;7.772;2022-12-04T04:49:15;97381.00;;;4.70
19666;BMP180;9980;51.020;7.772;2022-12-04T04:51:43;97384.00;;;4.70
19666;BMP180;9980;51.020;7.772;2022-12-04T04:54:13;97375.00;;;4.70
19666;BMP180;9980;51.020;7.772;2022-12-04T04:56:45;97377.00;;;4.70
19666;BMP180;9980;51.020;7.772;2022-12-04T04:59:13;97374.00;;;4.70
19666;BMP180;9980;51.020;7.772;2022-12-04T05:01:42;97395.00;;;4.70
19666;BMP180;9980;51.020;7.772;2022-12-04T05:04:10;97377.00;;;4.70
19666;BMP180;9980;51.020;7.772;2022-12-04T05:06:36;97380.00;;;4.70
19666;BMP180;9980;51.020;7.772;2022-12-04T05:09:04;97392.00;;;4.70
19666;BMP180;9980;51.020;7.772;2022-12-04T05:11:31;97381.00;;;4.70
19666;BMP180;9980;51.020;7.772;2022-12-04T05:14:00;97385.00;;;4.70
19666;BMP180;9980;51.020;7.772;2022-12-04T05:16:26;97385.00;;;4.70
19666;BMP180;9980;51.020;7.772;2022-12-04T05:18:52;97383.00;;;4.70
19666;BMP180;9980;51.020;7.772;2022-12-04T05:21:37;97367.00;;;4.60
19666;BMP180;9980;51.020;7.772;2022-12-04T05:24:04;97380.00;;;4.60
19666;BMP180;9980;51.020;7.772;2022-12-04T05:26:30;97371.00;;;4.60
19666;BMP180;9980;51.020;7.772;2022-12-04T05:28:56;97366.00;;;4.60
19666;BMP180;9980;51.020;7.772;2022-12-04T05:31:22;97368.00;;;4.60
19666;BMP180;9980;51.020;7.772;2022-12-04T05:33:49;97365.00;;;4.60
19666;BMP180;9980;51.020;7.772;2022-12-04T05:36:15;97374.00;;;4.60
19666;BMP180;9980;51.020;7.772;2022-12-04T05:38:41;97371.00;;;4.60
19666;BMP180;9980;51.020;7.772;2022-12-04T05:41:08;97370.00;;;4.60
19666;BMP180;9980;51.020;7.772;2022-12-04T05:43:35;97383.00;;;4.60
19666;BMP180;9980;51.020;7.772;2022-12-04T05:46:07;97375.00;;;4.60
19666;BMP180;9980;51.020;7.772;2022-12-04T05:48:34;97378.00;;;4.60
19666;BMP180;9980;51.020;7.772;2022-12-04T05:51:09;97382.00;;;4.60
19666;BMP180;9980;51.020;7.772;2022-12-04T05:53:36;97363.00;;;4.60
19666;BMP180;9980;51.020;7.772;2022-12-04T05:56:05;97366.00;;;4.60
19666;BMP180;9980;51.020;7.772;2022-12-04T05:58:36;97363.00;;;4.70
19666;BMP180;9980;51.020;7.772;2022-12-04T06:01:17;97378.00;;;4.60
19666;BMP180;9980;51.020;7.772;2022-12-04T06:03:44;97366.00;;;4.60
19666;BMP180;9980;51.020;7.772;2022-12-04T06:06:23;97376.00;;;4.70
19666;BMP180;9980;51.020;7.772;2022-12-04T06:08:52;97373.00;;;4.70
19666;BMP180;9980;51.020;7.772;2022-12-04T06:11:40;97379.00;;;4.70
19666;BMP180;9980;51.020;7.772;2022-12-04T06:14:10;97368.00;;;4.70
19666;BMP180;9980;51.020;7.772;2022-12-04T06:16:40;97386.00;;;4.70
19666;BMP180;9980;51.020;7.772;2022-12-04T06:19:15;97374.00;;;4.70
19666;BMP180;9980;51.020;7.772;2022-12-04T06:21:45;97375.00;;;4.70
19666;BMP180;9980;51.020;7.772;2022-12-04T06:24:30;97377.00;;;4.60
19666;BMP180;9980;51.020;7.772;2022-12-04T06:26:58;97384.00;;;4.60
19666;BMP180;9980;51.020;7.772;2022-12-04T06:29:45;97385.00;;;4.70
19666;BMP180;9980;51.020;7.772;2022-12-04T06:32:11;97376.00;;;4.60
19666;BMP180;9980;51.020;7.772;2022-12-04T06:34:45;97381.00;;;4.70
19666;BMP180;9980;51.020;7.772;2022-12-04T06:37:11;97370.00;;;4.60
19666;BMP180;9980;51.020;7.772;2022-12-04T06:39:37;97389.00;;;4.70
19666;BMP180;9980;51.020;7.772;2022-12-04T06:42:04;97380.00;;;4.70
19666;BMP180;9980;51.020;7.772;2022-12-04T06:44:31;97391.00;;;4.70
19666;BMP180;9980;51.020;7.772;2022-12-04T06:46:57;97392.00;;;4.70
19666;BMP180;9980;51.020;7.772;2022-12-04T06:49:27;97389.00;;;4.70
19666;BMP180;9980;51.020;7.772;2022-12-04T06:51:53;97388.00;;;4.70
19666;BMP180;9980;51.020;7.772;2022-12-04T06:54:19;97384.00;;;4.70
19666;BMP180;9980;51.020;7.772;2022-12-04T06:56:48;97385.00;;;4.70
19666;BMP180;9980;51.020;7.772;2022-12-04T06:59:14;97380.00;;;4.70
19666;BMP180;9980;51.020;7.772;2022-12-04T07:01:41;97376.00;;;4.70
19666;BMP180;9980;51.020;7.772;2022-12-04T07:04:07;97362.00;;;4.70
19666;BMP180;9980;51.020;7.772;2022-12-04T07:06:37;97397.00;;;4.70
19666;BMP180;9980;51.020;7.772;2022-12-04T07:09:07;97380.00;;;4.70
19666;BMP180;9980;51.020;7.772;2022-12-04T07:11:39;97394.00;;;4.60
19666;BMP180;9980;51.020;7.772;2022-12-04T07:14:06;97386.00;;;4.70
19666;BMP180;9980;51.020;7.772;2022-12-04T07:16:35;97385.00;;;4.70
19666;BMP180;9980;51.020;7.772;2022-12-04T07:19:12;97383.00;;;4.70
19666;BMP180;9980;51.020;7.772;2022-12-04T07:21:39;97395.00;;;4.70
19666;BMP180;9980;51.020;7.772;2022-12-04T07:24:05;97408.00;;;4.70
19666;BMP180;9980;51.020;7.772;2022-12-04T07:26:32;97390.00;;;4.70
19666;BMP180;9980;51.020;7.772;2022-12-04T07:28:59;97397.00;;;4.70
19666;BMP180;9980;51.020;7.772;2022-12-04T07:31:27;97409.00;;;4.70
19666;BMP180;9980;51.020;7.772;2022-12-04T07:33:54;97398.00;;;4.70
19666;BMP180;9980;51.020;7.772;2022-12-04T07:36:22;97396.00;;;4.70
19666;BMP180;9980;51.020;7.772;2022-12-04T07:38:50;97388.00;;;4.70
19666;BMP180;9980;51.020;7.772;2022-12-04T07:41:17;97396.00;;;4.70
19666;BMP180;9980;51.020;7.772;2022-12-04T07:43:44;97388.00;;;4.70
19666;BMP180;9980;51.020;7.772;2022-12-04T07:46:16;97384.00;;;4.70
19666;BMP180;9980;51.020;7.772;2022-12-04T07:48:42;97402.00;;;4.70
19666;BMP180;9980;51.020;7.772;2022-12-04T07:51:21;97414.00;;;4.70
19666;BMP180;9980;51.020;7.772;2022-12-04T07:53:50;97414.00;;;4.70
19666;BMP180;9980;51.020;7.772;2022-12-04T07:56:17;97405.00;;;4.70
19666;BMP180;9980;51.020;7.772;2022-12-04T07:58:45;97400.00;;;4.70
19666;BMP180;9980;51.020;7.772;2022-12-04T08:01:18;97403.00;;;4.70
19666;BMP180;9980;51.020;7.772;2022-12-04T08:03:47;97398.00;;;4.70
19666;BMP180;9980;51.020;7.772;2022-12-04T08:06:23;97409.00;;;4.70
19666;BMP180;9980;51.020;7.772;2022-12-04T08:08:51;97419.00;;;4.70
19666;BMP180;9980;51.020;7.772;2022-12-04T08:11:22;97412.00;;;4.70
19666;BMP180;9980;51.020;7.772;2022-12-04T08:13:58;97421.00;;;4.80
19666;BMP180;9980;51.020;7.772;2022-12-04T08:16:27;97423.00;;;4.80
19666;BMP180;9980;51.020;7.772;2022-12-04T08:18:54;97408.00;;;4.80
19666;BMP180;9980;51.020;7.772;2022-12-04T08:21:24;97401.00;;;4.80
19666;BMP180;9980;51.020;7.772;2022-12-04T08:23:54;97412.00;;;4.80
19666;BMP180;9980;51.020;7.772;2022-12-04T08:26:24;97401.00;;;4.80
19666;BMP180;9980;51.020;7.772;2022-12-04T08:28:55;97411.00;;;4.80
19666;BMP180;9980;51.020;7.772;2022-12-04T08:31:26;97409.00;;;4.80
19666;BMP180;9980;51.020;7.772;2022-12-04T08:33:54;97414.00;;;4.80
19666;BMP180;9980;51.020;7.772;2022-12-04T08:36:22;97422.00;;;4.90
19666;BMP180;9980;51.020;7.772;2022-12-04T08:38:49;97407.00;;;4.90
19666;BMP180;9980;51.020;7.772;2022-12-04T08:41:19;97401.00;;;4.90
19666;BMP180;9980;51.020;7.772;2022-12-04T08:43:52;97410.00;;;4.90
19666;BMP180;9980;51.020;7.772;2022-12-04T08:46:20;97393.00;;;4.90
19666;BMP180;9980;51.020;7.772;2022-12-04T08:48:47;97394.00;;;4.90
19666;BMP180;9980;51.020;7.772;2022-12-04T08:51:18;97383.00;;;4.90
19666;BMP180;9980;51.020;7.772;2022-12-04T08:53:45;97386.00;;;4.90
19666;BMP180;9980;51.020;7.772;2022-12-04T08:56:12;97379.00;;;4.90
19666;BMP180;9980;51.020;7.772;2022-12-04T08:58:39;97398.00;;;5.00
19666;BMP180;9980;51.020;7.772;2022-12-04T09:01:09;97402.00;;;5.00
19666;BMP180;9980;51.020;7.772;2022-12-04T09:03:36;97410.00;;;5.00
19666;BMP180;9980;51.020;7.772;2022-12-04T09:06:04;97406.00;;;5.00
19666;BMP180;9980;51.020;7.772;2022-12-04T09:08:32;97401.00;;;5.00
19666;BMP180;9980;51.020;7.772;2022-12-04T09:11:20;97410.00;;;5.00
19666;BMP180;9980;51.020;7.772;2022-12-04T09:13:48;97406.00;;;5.00
19666;BMP180;9980;51.020;7.772;2022-12-04T09:16:21;97415.00;;;5.00
19666;BMP180;9980;51.020;7.772;2022-12-04T09:18:48;97420.00;;;5.00
19666;BMP180;9980;51.020;7.772;2022-12-04T09:21:17;97424.00;;;5.00
19666;BMP180;9980;51.020;7.772;2022-12-04T09:23:45;97415.00;;;5.00
19666;BMP180;9980;51.020;7.772;2022-12-04T09:26:26;97420.00;;;5.00
19666;BMP180;9980;51.020;7.772;2022-12-04T09:28:54;97433.00;;;5.10
19666;BMP180;9980;51.020;7.772;2022-12-04T09:31:22;97425.00;;;5.10
19666;BMP180;9980;51.020;7.772;2022-12-04T09:33:48;97423.00;;;5.10
19666;BMP180;9980;51.020;7.772;2022-12-04T09:36:15;97423.00;;;5.10
19666;BMP180;9980;51.020;7.772;2022-12-04T09:38:48;97408.00;;;5.10
19666;BMP180;9980;51.020;7.772;2022-12-04T09:41:22;97410.00;;;5.10
19666;BMP180;9980;51.020;7.772;2022-12-04T09:44:09;97406.00;;;5.10
19666;BMP180;9980;51.020;7.772;2022-12-04T09:46:58;97409.00;;;5.20
19666;BMP180;9980;51.020;7.772;2022-12-04T09:49:35;97406.00;;;5.20
19666;BMP180;9980;51.020;7.772;2022-12-04T09:52:12;97414.00;;;5.20
19666;BMP180;9980;51.020;7.772;2022-12-04T09:54:49;97414.00;;;5.30
19666;BMP180;9980;51.020;7.772;2022-12-04T09:57:42;97402.00;;;5.30
19666;BMP180;9980;51.020;7.772;2022-12-04T10:00:17;97418.00;;;5.40
19666;BMP180;9980;51.020;7.772;2022-12-04T10:02:55;97400.00;;;5.40
19666;BMP180;9980;51.020;7.772;2022-12-04T10:06:03;97393.00;;;5.40
19666;BMP180;9980;51.020;7.772;2022-12-04T10:08:37;97414.00;;;5.40
19666;BMP180;9980;51.020;7.772;2022-12-04T10:14:23;97394.00;;;5.50
19666;BMP180;9980;51.020;7.772;2022-12-04T10:20:34;97390.00;;;5.60
19666;BMP180;9980;51.020;7.772;2022-12-04T10:25:33;97373.00;;;5.60
19666;BMP180;9980;51.020;7.772;2022-12-04T10:28:31;97376.00;;;5.60
19666;BMP180;9980;51.020;7.772;2022-12-04T10:31:01;97381.00;;;5.60
19666;BMP180;9980;51.020;7.772;2022-12-04T10:33:40;97393.00;;;5.60
19666;BMP180;9980;51.020;7.772;2022-12-04T10:36:19;97364.00;;;5.60
19666;BMP180;9980;51.020;7.772;2022-12-04T10:38:56;97366.00;;;5.60
19666;BMP180;9980;51.020;7.772;2022-12-04T10:41:34;97371.00;;;5.60
19666;BMP180;9980;51.020;7.772;2022-12-04T10:44:04;97354.00;;;5.60
19666;BMP180;9980;51.020;7.772;2022-12-04T10:46:33;97351.00;;;5.60
19666;BMP180;9980;51.020;7.772;2022-12-04T10:51:41;97351.00;;;5.70
19666;BMP180;9980;51.020;7.772;2022-12-04T10:54:36;97345.00;;;5.70
19666;BMP180;9980;51.020;7.772;2022-12-04T10:57:08;97355.00;;;5.70
19666;BMP180;9980;51.020;7.772;2022-12-04T10:59:48;97343.00;;;5.70
19666;BMP180;9980;51.020;7.772;2022-12-04T11:02:26;97345.00;;;5.70
19666;BMP180;9980;51.020;7.772;2022-12-04T11:05:04;97345.00;;;5.80
19666;BMP180;9980;51.020;7.772;2022-12-04T11:07:41;97349.00;;;5.80
19666;BMP180;9980;51.020;7.772;2022-12-04T11:10:41;97330.00;;;5.80
19666;BMP180;9980;51.020;7.772;2022-12-04T11:15:46;97333.00;;;5.80
19666;BMP180;9980;51.020;7.772;2022-12-04T11:18:21;97337.00;;;5.80
19666;BMP180;9980;51.020;7.772;2022-12-04T11:20:52;97330.00;;;5.80
19666;BMP180;9980;51.020;7.772;2022-12-04T11:23:20;97340.00;;;5.90
19666;BMP180;9980;51.020;7.772;2022-12-04T11:25:51;97337.00;;;5.90
19666;BMP180;9980;51.020;7.772;2022-12-04T11:28:31;97336.00;;;5.90
19666;BMP180;9980;51.020;7.772;2022-12-04T11:31:20;97330.00;;;5.90
19666;BMP180;9980;51.020;7.772;2022-12-04T11:34:04;97328.00;;;5.90
19666;BMP180;9980;51.020;7.772;2022-12-04T11:36:36;97338.00;;;6.00
19666;BMP180;9980;51.020;7.772;2022-12-04T11:39:29;97323.00;;;5.90
19666;BMP180;9980;51.020;7.772;2022-12-04T11:42:18;97322.00;;;6.00
19666;BMP180;9980;51.020;7.772;2022-12-04T11:45:03;97316.00;;;6.00
19666;BMP180;9980;51.020;7.772;2022-12-04T11:47:58;97324.00;;;6.00
19666;BMP180;9980;51.020;7.772;2022-12-04T11:51:10;97315.00;;;5.90
19666;BMP180;9980;51.020;7.772;2022-12-04T11:56:38;97316.00;;;6.00
19666;BMP180;9980;51.020;7.772;2022-12-04T12:02:07;97308.00;;;6.00
19666;BMP180;9980;51.020;7.772;2022-12-04T12:08:44;97313.00;;;6.00
19666;BMP180;9980;51.020;7.772;2022-12-04T12:14:18;97296.00;;;6.00
19666;BMP180;9980;51.020;7.772;2022-12-04T12:20:40;97274.00;;;6.00
19666;BMP180;9980;51.020;7.772;2022-12-04T12:26:07;97260.00;;;6.10
19666;BMP180;9980;51.020;7.772;2022-12-04T12:37:25;97247.00;;;6.20
19666;BMP180;9980;51.020;7.772;2022-12-04T12:42:44;97265.00;;;6.20
19666;BMP180;9980;51.020;7.772;2022-12-04T12:45:49;97252.00;;;6.20
19666;BMP180;9980;51.020;7.772;2022-12-04T12:48:31;97245.00;;;6.20
19666;BMP180;9980;51.020;7.772;2022-12-04T12:51:51;97253.00;;;6.20
19666;BMP180;9980;51.020;7.772;2022-12-04T12:57:23;97268.00;;;6.30
19666;BMP180;9980;51.020;7.772;2022-12-04T13:00:02;97281.00;;;6.30
19666;BMP180;9980;51.020;7.772;2022-12-04T13:02:52;97278.00;;;6.40
19666;BMP180;9980;51.020;7.772;2022-12-04T13:05:43;97284.00;;;6.40
19666;BMP180;9980;51.020;7.772;2022-12-04T13:08:26;97286.00;;;6.40
19666;BMP180;9980;51.020;7.772;2022-12-04T13:11:23;97296.00;;;6.50
19666;BMP180;9980;51.020;7.772;2022-12-04T13:13:57;97280.00;;;6.50
19666;BMP180;9980;51.020;7.772;2022-12-04T13:16:49;97282.00;;;6.50
19666;BMP180;9980;51.020;7.772;2022-12-04T13:19:43;97266.00;;;6.50
19666;BMP180;9980;51.020;7.772;2022-12-04T13:22:43;97276.00;;;6.50
19666;BMP180;9980;51.020;7.772;2022-12-04T13:28:05;97281.00;;;6.50
19666;BMP180;9980;51.020;7.772;2022-12-04T13:34:10;97280.00;;;6.60
19666;BMP180;9980;51.020;7.772;2022-12-04T13:36:56;97278.00;;;6.60
19666;BMP180;9980;51.020;7.772;2022-12-04T13:42:24;97293.00;;;6.60
19666;BMP180;9980;51.020;7.772;2022-12-04T13:44:58;97294.00;;;6.70
19666;BMP180;9980;51.020;7.772;2022-12-04T13:47:31;97292.00;;;6.70
19666;BMP180;9980;51.020;7.772;2022-12-04T13:50:24;97283.00;;;6.70
19666;BMP180;9980;51.020;7.772;2022-12-04T13:52:52;97277.00;;;6.70
19666;BMP180;9980;51.020;7.772;2022-12-04T13:55:27;97293.00;;;6.70
19666;BMP180;9980;51.020;7.772;2022-12-04T14:00:42;97269.00;;;6.70
19666;BMP180;9980;51.020;7.772;2022-12-04T14:03:30;97274.00;;;6.70
19666;BMP180;9980;51.020;7.772;2022-12-04T14:06:03;97275.00;;;6.70
19666;BMP180;9980;51.020;7.772;2022-12-04T14:08:45;97260.00;;;6.70
19666;BMP180;9980;51.020;7.772;2022-12-04T14:11:16;97284.00;;;6.70
19666;BMP180;9980;51.020;7.772;2022-12-04T14:13:50;97259.00;;;6.70
19666;BMP180;9980;51.020;7.772;2022-12-04T14:16:33;97259.00;;;6.70
19666;BMP180;9980;51.020;7.772;2022-12-04T14:19:03;97267.00;;;6.70
19666;BMP180;9980;51.020;7.772;2022-12-04T14:21:45;97259.00;;;6.70
19666;BMP180;9980;51.020;7.772;2022-12-04T14:24:38;97254.00;;;6.70
19666;BMP180;9980;51.020;7.772;2022-12-04T14:27:33;97266.00;;;6.60
19666;BMP180;9980;51.020;7.772;2022-12-04T14:30:01;97272.00;;;6.70
19666;BMP180;9980;51.020;7.772;2022-12-04T14:32:32;97257.00;;;6.70
19666;BMP180;9980;51.020;7.772;2022-12-04T14:35:00;97248.00;;;6.70
19666;BMP180;9980;51.020;7.772;2022-12-04T14:37:33;97253.00;;;6.70
19666;BMP180;9980;51.020;7.772;2022-12-04T14:40:05;97235.00;;;6.70
19666;BMP180;9980;51.020;7.772;2022-12-04T14:42:39;97245.00;;;6.70
19666;BMP180;9980;51.020;7.772;2022-12-04T14:45:45;97241.00;;;6.70
19666;BMP180;9980;51.020;7.772;2022-12-04T14:48:34;97241.00;;;6.70
19666;BMP180;9980;51.020;7.772;2022-12-04T14:59:53;97239.00;;;6.70
19666;BMP180;9980;51.020;7.772;2022-12-04T15:02:40;97236.00;;;6.70
19666;BMP180;9980;51.020;7.772;2022-12-04T15:05:30;97240.00;;;6.70
19666;BMP180;9980;51.020;7.772;2022-12-04T15:08:03;97231.00;;;6.70
19666;BMP180;9980;51.020;7.772;2022-12-04T15:10:34;97245.00;;;6.80
19666;BMP180;9980;51.020;7.772;2022-12-04T15:13:34;97233.00;;;6.80
19666;BMP180;9980;51.020;7.772;2022-12-04T15:16:22;97234.00;;;6.70
19666;BMP180;9980;51.020;7.772;2022-12-04T15:19:00;97233.00;;;6.80
19666;BMP180;9980;51.020;7.772;2022-12-04T15:21:37;97244.00;;;6.80
19666;BMP180;9980;51.020;7.772;2022-12-04T15:24:18;97239.00;;;6.80
19666;BMP180;9980;51.020;7.772;2022-12-04T15:26:47;97258.00;;;6.80
19666;BMP180;9980;51.020;7.772;2022-12-04T15:29:22;97248.00;;;6.80
19666;BMP180;9980;51.020;7.772;2022-12-04T15:31:55;97246.00;;;6.80
19666;BMP180;9980;51.020;7.772;2022-12-04T15:37:30;97241.00;;;6.80
19666;BMP180;9980;51.020;7.772;2022-12-04T15:39:58;97242.00;;;6.80
19666;BMP180;9980;51.020;7.772;2022-12-04T15:42:29;97253.00;;;6.80
19666;BMP180;9980;51.020;7.772;2022-12-04T15:47:51;97243.00;;;6.80
19666;BMP180;9980;51.020;7.772;2022-12-04T15:50:21;97225.00;;;6.80
19666;BMP180;9980;51.020;7.772;2022-12-04T15:53:15;97238.00;;;6.80
19666;BMP180;9980;51.020;7.772;2022-12-04T15:55:54;97225.00;;;6.80
19666;BMP180;9980;51.020;7.772;2022-12-04T15:58:27;97242.00;;;6.80
19666;BMP180;9980;51.020;7.772;2022-12-04T16:01:10;97235.00;;;6.80
19666;BMP180;9980;51.020;7.772;2022-12-04T16:03:50;97248.00;;;6.80
19666;BMP180;9980;51.020;7.772;2022-12-04T16:06:29;97249.00;;;6.80
19666;BMP180;9980;51.020;7.772;2022-12-04T16:09:13;97270.00;;;6.80
19666;BMP180;9980;51.020;7.772;2022-12-04T16:11:43;97269.00;;;6.80
19666;BMP180;9980;51.020;7.772;2022-12-04T16:14:17;97264.00;;;6.80
19666;BMP180;9980;51.020;7.772;2022-12-04T16:16:47;97255.00;;;6.80
19666;BMP180;9980;51.020;7.772;2022-12-04T16:19:36;97276.00;;;6.80
19666;BMP180;9980;51.020;7.772;2022-12-04T16:22:15;97273.00;;;6.70
19666;BMP180;9980;51.020;7.772;2022-12-04T16:24:46;97290.00;;;6.80
19666;BMP180;9980;51.020;7.772;2022-12-04T16:27:17;97283.00;;;6.80
19666;BMP180;9980;51.020;7.772;2022-12-04T16:29:45;97295.00;;;6.80
19666;BMP180;9980;51.020;7.772;2022-12-04T16:32:15;97303.00;;;6.80
19666;BMP180;9980;51.020;7.772;2022-12-04T16:34:42;97299.00;;;6.80
19666;BMP180;9980;51.020;7.772;2022-12-04T16:37:19;97286.00;;;6.80
19666;BMP180;9980;51.020;7.772;2022-12-04T16:39:46;97292.00;;;6.80
19666;BMP180;9980;51.020;7.772;2022-12-04T16:42:20;97293.00;;;6.80
19666;BMP180;9980;51.020;7.772;2022-12-04T16:44:48;97293.00;;;6.80